Flight Track Log - Related Links

Times and Time Zones

All times are in EDT time to prevent confusion due to time zone crossing. See the DAL2082 flight status page for this flight to view local times or setup timezone preferences in your user account.

Time Position Orientation Groundspeed Altitude Reporting Facility
EDT Latitude Longitude Course Direction KTS MPH feet Rate Location/Type
Mon 02:04:54 PM 33.6500 -84.3833 North 174 200 2,400  Level Atlanta TRACON
Mon 02:05:48 PM 33.6500 -84.3167 90° East 238 274 3,800 2,450 Climbing Atlanta TRACON
Mon 02:06:54 PM 33.6833 -84.2167 68° East 259 298 7,300 2,810 Climbing Atlanta TRACON
Mon 02:07:54 PM 33.7333 -84.1833 29° Northeast 284 327 9,700 1,350 Climbing Atlanta TRACON
Mon 02:08:00 PM 33.9244 -84.2577 320° Northwest  Level FlightAware Approximate
Mon 02:08:54 PM 33.8167 -84.1833 360° North 327 376 10,000  Level Atlanta TRACON
Mon 02:09:00 PM 34.0423 -84.2667 North  Level FlightAware Approximate
Mon 02:09:54 PM 33.9000 -84.2500 326° Northwest 384 442 10,800  Level Atlanta TRACON
Mon 02:10:00 PM 34.1629 -84.2667 North  Level FlightAware Approximate
Mon 02:11:33 PM 34.0653 -84.2769 352° North 386 444 14,500  Level Atlanta Center
Mon 02:12:33 PM 34.1969 -84.2775 360° North 400 460 17,100 2,100 Climbing Atlanta Center
Mon 02:13:33 PM 34.3136 -84.2728 North 410 472 18,700 1,650 Climbing Atlanta Center
Mon 02:14:33 PM 34.4286 -84.2453 11° North 421 484 20,400 1,600 Climbing Atlanta Center
Mon 02:15:33 PM 34.5497 -84.2153 12° North 433 498 21,900 1,450 Climbing Atlanta Center
Mon 02:16:33 PM 34.6686 -84.1928 North 432 497 23,300 1,500 Climbing Atlanta Center
Mon 02:17:33 PM 34.7939 -84.1603 12° North 432 497 24,900 1,800 Climbing Atlanta Center
Mon 02:18:33 PM 34.9150 -84.1325 11° North 437 503 26,900 1,700 Climbing Atlanta Center
Mon 02:19:33 PM 35.0339 -84.1047 11° North 437 503 28,300 1,650 Climbing Atlanta Center
Mon 02:20:33 PM 35.1528 -84.0744 12° North 437 503 30,200 1,600 Climbing Atlanta Center
Mon 02:21:33 PM 35.2697 -84.0464 11° North 430 495 31,500 1,150 Climbing Atlanta Center
Mon 02:22:33 PM 35.3867 -84.0183 11° North 425 489 32,500 1,000 Climbing Atlanta Center
Mon 02:23:33 PM 35.5033 -83.9878 12° North 425 489 33,500 750 Climbing Atlanta Center
Mon 02:24:33 PM 35.6181 -83.9622 10° North 425 489 34,000 250 Climbing Atlanta Center
Mon 02:25:33 PM 35.7308 -83.9339 12° North 425 489 34,000  Level Atlanta Center
Mon 02:26:33 PM 35.8456 -83.9081 10° North 420 483 34,000  Level Atlanta Center
Mon 02:27:33 PM 35.9558 -83.8617 19° North 413 475 34,000  Level Atlanta Center
Mon 02:28:33 PM 36.0622 -83.7922 28° Northeast 413 475 34,000  Level Atlanta Center
Mon 02:29:12 PM 36.1253 -83.7522 27° Northeast 424 488 34,000  Level Indianapolis Center
Mon 02:30:13 PM 36.2300 -83.6861 27° Northeast 423 487 34,000  Level Indianapolis Center
Mon 02:31:15 PM 36.3342 -83.6192 27° Northeast 422 486 34,000  Level Indianapolis Center
Mon 02:32:17 PM 36.4406 -83.5556 26° Northeast 424 488 34,000  Level Indianapolis Center
Mon 02:33:19 PM 36.5661 -83.4817 25° Northeast 425 489 34,000  Level Indianapolis Center
Mon 02:34:20 PM 36.6728 -83.4161 26° Northeast 425 489 34,000  Level Indianapolis Center
Mon 02:35:22 PM 36.7808 -83.3550 24° Northeast 423 487 34,000  Level Indianapolis Center
Mon 02:36:24 PM 36.8914 -83.2958 23° Northeast 430 495 34,000 97 Level Indianapolis Center
Mon 02:37:26 PM 37.0014 -83.2361 23° Northeast 425 489 34,200 484 Climbing Indianapolis Center
Mon 02:38:28 PM 37.0964 -83.1431 38° Northeast 430 495 35,000 387 Climbing Indianapolis Center
Mon 02:39:30 PM 37.1819 -83.0356 45° Northeast 430 495 35,000  Level Indianapolis Center
Mon 02:40:31 PM 37.2667 -82.9283 45° Northeast 428 493 35,000  Level Indianapolis Center
Mon 02:41:33 PM 37.3528 -82.8219 44° Northeast 430 495 35,000  Level Indianapolis Center
Mon 02:42:35 PM 37.4531 -82.6983 44° Northeast 431 496 35,000  Level Indianapolis Center
Mon 02:43:37 PM 37.5383 -82.5931 44° Northeast 428 493 35,000  Level Indianapolis Center
Mon 02:44:39 PM 37.6225 -82.4856 45° Northeast 430 495 35,000  Level Indianapolis Center
Mon 02:45:41 PM 37.7078 -82.3789 45° Northeast 430 495 35,000  Level Indianapolis Center
Mon 02:46:42 PM 37.7914 -82.2706 46° Northeast 428 493 35,000  Level Indianapolis Center
Mon 02:47:44 PM 37.8761 -82.1631 45° Northeast 429 494 35,000  Level Indianapolis Center
Mon 02:48:46 PM 37.9708 -82.0397 46° Northeast 427 491 35,000  Level Indianapolis Center
Mon 02:49:48 PM 38.0553 -81.9319 45° Northeast 431 496 35,000  Level Indianapolis Center
Mon 02:50:50 PM 38.1389 -81.8231 46° Northeast 431 496 35,000  Level Indianapolis Center
Mon 02:51:52 PM 38.2222 -81.7161 45° Northeast 429 494 35,000  Level Indianapolis Center
Mon 02:52:54 PM 38.3044 -81.6072 46° Northeast 429 494 35,000  Level Indianapolis Center
Mon 02:53:56 PM 38.3867 -81.4981 46° Northeast 430 495 35,000  Level Indianapolis Center
Mon 02:54:58 PM 38.4858 -81.3672 46° Northeast 431 496 35,000  Level Indianapolis Center
Mon 02:56:00 PM 38.5681 -81.2586 46° Northeast 431 496 35,000  Level Indianapolis Center
Mon 02:57:02 PM 38.6497 -81.1508 46° Northeast 428 493 35,000  Level Indianapolis Center
Mon 02:58:04 PM 38.7308 -81.0411 47° Northeast 428 493 35,000  Level Indianapolis Center
Mon 02:59:06 PM 38.8117 -80.9322 46° Northeast 426 490 35,000  Level Indianapolis Center
Mon 03:00:08 PM 38.9122 -80.7978 46° Northeast 435 501 35,000  Level Indianapolis Center
Mon 03:01:10 PM 38.9997 -80.6944 43° Northeast 430 495 35,000  Level Indianapolis Center
Mon 03:02:12 PM 39.1000 -80.6092 33° Northeast 430 495 35,000  Level Indianapolis Center
Mon 03:03:14 PM 39.2006 -80.5222 34° Northeast 435 501 35,000  Level Indianapolis Center
Mon 03:04:16 PM 39.3017 -80.4353 34° Northeast 437 503 35,000  Level Indianapolis Center
Mon 03:05:18 PM 39.4031 -80.3500 33° Northeast 436 502 35,000  Level Indianapolis Center
Mon 03:06:20 PM 39.5053 -80.2156 45° Northeast 440 506 35,000  Level Indianapolis Center
Mon 03:07:18 PM 39.5722 -80.1036 52° Northeast 425 489 35,000  Level Cleveland Center
Mon 03:08:18 PM 39.6444 -79.9764 54° Northeast 435 501 35,000  Level Cleveland Center
Mon 03:09:18 PM 39.7147 -79.8464 55° Northeast 440 506 35,000  Level Cleveland Center
Mon 03:10:18 PM 39.7844 -79.7186 55° Northeast 440 506 35,000  Level Cleveland Center
Mon 03:11:18 PM 39.8647 -79.5717 55° Northeast 441 507 35,000  Level Cleveland Center
Mon 03:12:18 PM 39.9386 -79.4431 53° Northeast 441 507 35,000  Level Cleveland Center
Mon 03:13:18 PM 40.0081 -79.3119 55° Northeast 441 507 35,000  Level Cleveland Center
Mon 03:14:18 PM 40.0772 -79.1831 55° Northeast 434 499 35,000  Level Cleveland Center
Mon 03:15:18 PM 40.1486 -79.0511 55° Northeast 434 499 35,000  Level Cleveland Center
Mon 03:16:18 PM 40.2158 -78.9300 54° Northeast 434 499 35,000  Level Cleveland Center
Mon 03:17:18 PM 40.2847 -78.8003 55° Northeast 434 499 35,000  Level Cleveland Center
Mon 03:18:18 PM 40.3556 -78.6678 55° Northeast 434 499 35,000  Level Cleveland Center
Mon 03:20:08 PM 40.4869 -78.4208 55° Northeast 449 517 35,000  Level New York Center
Mon 03:21:08 PM 40.5581 -78.2867 55° Northeast 444 511 35,000  Level New York Center
Mon 03:22:08 PM 40.6269 -78.1547 55° Northeast 444 511 35,000  Level New York Center
Mon 03:23:08 PM 40.7069 -78.0044 55° Northeast 444 511 35,000  Level New York Center
Mon 03:24:08 PM 40.7778 -77.8692 55° Northeast 444 511 35,000  Level New York Center
Mon 03:25:08 PM 40.8483 -77.7311 56° Northeast 439 505 35,000  Level New York Center
Mon 03:26:08 PM 40.9192 -77.5928 56° Northeast 444 511 35,000  Level New York Center
Mon 03:27:08 PM 40.9914 -77.4542 55° Northeast 444 511 35,000  Level New York Center
Mon 03:28:08 PM 41.0525 -77.3336 56° Northeast 444 511 35,000  Level New York Center
Mon 03:29:08 PM 41.1203 -77.1969 57° Northeast 439 505 35,000  Level New York Center
Mon 03:30:08 PM 41.1883 -77.0572 57° Northeast 439 505 35,000  Level New York Center
Mon 03:31:08 PM 41.2581 -76.9203 56° Northeast 439 505 35,000  Level New York Center
Mon 03:32:08 PM 41.3297 -76.7831 55° Northeast 439 505 35,000  Level New York Center
Mon 03:33:08 PM 41.3992 -76.6425 57° Northeast 439 505 35,000  Level New York Center
Mon 03:34:08 PM 41.4728 -76.5022 55° Northeast 444 511 35,000  Level New York Center
Mon 03:35:08 PM 41.5422 -76.3531 58° Northeast 454 522 35,000  Level New York Center
Mon 03:36:08 PM 41.6114 -76.2117 57° Northeast 454 522 35,000  Level New York Center
Mon 03:37:08 PM 41.6781 -76.0700 58° Northeast 454 522 35,000  Level New York Center
Mon 03:38:08 PM 41.7514 -75.9200 57° Northeast 454 522 35,000  Level New York Center
Mon 03:40:39 PM 41.9169 -75.5819 57° Northeast 461 531 35,000  Level Boston Center
Mon 03:41:39 PM 41.9833 -75.4428 57° Northeast 456 525 35,000  Level Boston Center
Mon 03:42:40 PM 42.0517 -75.3006 57° Northeast 451 519 35,000  Level Boston Center
Mon 03:43:40 PM 42.1197 -75.1581 57° Northeast 451 519 35,000  Level Boston Center
Mon 03:44:40 PM 42.1836 -75.0178 58° Northeast 444 511 35,000 -559 Level Boston Center
Mon 03:45:38 PM 42.2514 -74.8775 57° Northeast 444 511 33,900 -1,765 Descending Boston Center
Mon 03:46:39 PM 42.3189 -74.7342 57° Northeast 444 511 31,500 -2,430 Descending Boston Center
Mon 03:47:39 PM 42.3950 -74.5711 58° Northeast 456 525 29,000 -1,240 Descending Boston Center
Mon 03:48:40 PM 42.4708 -74.4161 56° Northeast 466 536 29,000 -353 Level Boston Center
Mon 03:49:38 PM 42.5400 -74.2633 58° Northeast 471 542 28,300 -908 Descending Boston Center
Mon 03:50:39 PM 42.6069 -74.1100 59° Northeast 465 535 27,200 -942 Descending Boston Center
Mon 03:51:39 PM 42.6614 -73.9478 65° Northeast 471 542 26,400 -850 Descending Boston Center
Mon 03:52:39 PM 42.6781 -73.7675 83° East 462 532 25,500 -793 Descending Boston Center
Mon 03:53:40 PM 42.6947 -73.5983 82° East 462 532 24,800 -942 Descending Boston Center
Mon 03:54:40 PM 42.7108 -73.4261 83° East 462 532 23,600 -966 Descending Boston Center
Mon 03:55:38 PM 42.7247 -73.2569 84° East 462 532 22,900 -915 Descending Boston Center
Mon 03:56:38 PM 42.7403 -73.0903 83° East 456 525 21,800 -1,438 Descending Boston Center
Mon 03:57:39 PM 42.7517 -72.9150 85° East 456 525 20,000 -1,426 Descending Boston Center
Mon 03:58:40 PM 42.7625 -72.7739 84° East 450 518 18,900 -1,587 Descending Boston Center
Mon 03:59:40 PM 42.7753 -72.6211 83° East 423 487 16,800 -1,450 Descending Boston Center
Mon 04:00:40 PM 42.7858 -72.4711 84° East 408 470 16,000 -1,780 Descending Boston Center
Mon 04:01:38 PM 42.7942 -72.3242 86° East 397 457 13,300 -2,441 Descending Boston Center
Mon 04:02:38 PM 42.8044 -72.1656 85° East 378 435 11,200 -1,574 Descending Boston Center
Mon 04:03:40 PM 42.8103 -72.0525 86° East 344 396 10,100 -1,122 Descending Boston Center
Mon 04:04:41 PM 42.8203 -71.9306 84° East 304 350 8,900 -1,169 Descending Boston Center
Mon 04:05:38 PM 42.8156 -71.8286 94° East 291 335 7,800 -1,475 Descending Boston Center
Mon 04:06:39 PM 42.8022 -71.7072 98° East 291 335 6,000 -1,623 Descending Boston Center
Mon 04:07:40 PM 42.7956 -71.6111 95° East 291 335 4,500 -1,190 Descending Boston Center
Mon 04:08:40 PM 42.7925 -71.5064 92° East 267 307 3,600 -942 Descending Boston Center
Mon 04:09:41 PM 42.8086 -71.4269 75° East 232 267 2,600 -915 Descending Boston Center
Mon 04:10:38 PM 42.8478 -71.3781 42° Northeast 175 201 1,800 -763 Descending Boston Center
Mon 04:11:39 PM 42.8814 -71.4031 331° Northwest 134 154 1,100 -689 Descending Boston Center
Mon 04:12:40 PM 42.9189 -71.4281 334° Northwest 134 154 400 -353 Descending Boston Center
Mon 04:13:38 PM 42.9464 -71.4444 336° Northwest 134 154 400 4,336 Level Boston Center
Mon 04:14:39 PM 42.9778 -71.4639 336° Northwest 134 154 9,000 4,195 Climbing Boston Center
Mon 04:15:41 PM 43.0092 -71.4861 333° Northwest 134 154 9,000  Level Boston Center
Mon 04:16:38 PM 43.0406 -71.5056 336° Northwest 134 154 9,000  Level Boston Center
Mon 04:18:00 PM 42.9328 -71.4358 155° Southeast  Level Estimated
Mon 04:25:00 PM 42.9328 -71.4358 180° South  Level Estimated
Mon 04:26:00 PM 42.9328 -71.4358 180° South  Level Estimated
Mon 04:27:00 PM 42.9328 -71.4358 180° South  Level Estimated

Login

Don't have an account? Register now (free) for customized features, flight alerts, and more!